sensor_id;sensor_type;location;lat;lon;timestamp;P1;durP1;ratioP1;P2;durP2;ratioP2
11498;SDS011;5806;48.748;9.278;2023-03-14T00:02:14;3.63;;;1.30;;
11498;SDS011;5806;48.748;9.278;2023-03-14T00:04:41;3.60;;;1.00;;
11498;SDS011;5806;48.748;9.278;2023-03-14T00:07:10;2.77;;;1.40;;
11498;SDS011;5806;48.748;9.278;2023-03-14T00:09:38;4.50;;;1.20;;
11498;SDS011;5806;48.748;9.278;2023-03-14T00:12:06;4.70;;;1.10;;
11498;SDS011;5806;48.748;9.278;2023-03-14T00:14:34;2.53;;;1.10;;
11498;SDS011;5806;48.748;9.278;2023-03-14T00:17:01;3.30;;;1.13;;
11498;SDS011;5806;48.748;9.278;2023-03-14T00:19:29;5.13;;;1.10;;
11498;SDS011;5806;48.748;9.278;2023-03-14T00:21:56;5.20;;;1.40;;
11498;SDS011;5806;48.748;9.278;2023-03-14T00:24:23;3.47;;;1.20;;
11498;SDS011;5806;48.748;9.278;2023-03-14T00:26:51;8.07;;;1.80;;
11498;SDS011;5806;48.748;9.278;2023-03-14T00:29:18;4.23;;;1.03;;
11498;SDS011;5806;48.748;9.278;2023-03-14T00:31:46;4.90;;;1.20;;
11498;SDS011;5806;48.748;9.278;2023-03-14T00:34:13;4.50;;;1.40;;
11498;SDS011;5806;48.748;9.278;2023-03-14T00:36:41;3.60;;;1.17;;
11498;SDS011;5806;48.748;9.278;2023-03-14T00:39:08;3.57;;;0.90;;
11498;SDS011;5806;48.748;9.278;2023-03-14T00:41:36;5.43;;;1.23;;
11498;SDS011;5806;48.748;9.278;2023-03-14T00:44:03;3.10;;;1.07;;
11498;SDS011;5806;48.748;9.278;2023-03-14T00:46:31;3.43;;;1.47;;
11498;SDS011;5806;48.748;9.278;2023-03-14T00:48:58;4.80;;;1.30;;
11498;SDS011;5806;48.748;9.278;2023-03-14T00:51:26;4.47;;;1.20;;
11498;SDS011;5806;48.748;9.278;2023-03-14T00:53:53;3.90;;;1.30;;
11498;SDS011;5806;48.748;9.278;2023-03-14T00:56:21;2.30;;;1.10;;
11498;SDS011;5806;48.748;9.278;2023-03-14T00:58:48;4.33;;;1.60;;
11498;SDS011;5806;48.748;9.278;2023-03-14T01:01:18;5.83;;;1.37;;
11498;SDS011;5806;48.748;9.278;2023-03-14T01:03:46;2.87;;;1.23;;
11498;SDS011;5806;48.748;9.278;2023-03-14T01:06:18;3.43;;;1.10;;
11498;SDS011;5806;48.748;9.278;2023-03-14T01:08:47;4.97;;;1.67;;
11498;SDS011;5806;48.748;9.278;2023-03-14T01:11:16;5.83;;;1.40;;
11498;SDS011;5806;48.748;9.278;2023-03-14T01:13:46;4.80;;;1.50;;
11498;SDS011;5806;48.748;9.278;2023-03-14T01:16:14;4.63;;;1.47;;
11498;SDS011;5806;48.748;9.278;2023-03-14T01:18:43;6.33;;;1.30;;
11498;SDS011;5806;48.748;9.278;2023-03-14T01:21:16;3.03;;;1.10;;
11498;SDS011;5806;48.748;9.278;2023-03-14T01:23:42;5.20;;;1.47;;
11498;SDS011;5806;48.748;9.278;2023-03-14T01:26:11;5.93;;;1.10;;
11498;SDS011;5806;48.748;9.278;2023-03-14T01:28:40;5.00;;;1.27;;
11498;SDS011;5806;48.748;9.278;2023-03-14T01:31:09;5.13;;;1.40;;
11498;SDS011;5806;48.748;9.278;2023-03-14T01:33:37;11.80;;;1.63;;
11498;SDS011;5806;48.748;9.278;2023-03-14T01:36:06;3.57;;;1.23;;
11498;SDS011;5806;48.748;9.278;2023-03-14T01:38:35;3.53;;;1.20;;
11498;SDS011;5806;48.748;9.278;2023-03-14T01:41:04;5.73;;;1.17;;
11498;SDS011;5806;48.748;9.278;2023-03-14T01:43:32;4.53;;;1.20;;
11498;SDS011;5806;48.748;9.278;2023-03-14T01:48:44;5.40;;;1.20;;
11498;SDS011;5806;48.748;9.278;2023-03-14T01:51:13;7.33;;;1.17;;
11498;SDS011;5806;48.748;9.278;2023-03-14T01:53:49;7.00;;;1.37;;
11498;SDS011;5806;48.748;9.278;2023-03-14T01:56:19;2.60;;;1.10;;
11498;SDS011;5806;48.748;9.278;2023-03-14T01:58:49;4.10;;;1.13;;
11498;SDS011;5806;48.748;9.278;2023-03-14T02:01:18;5.93;;;1.30;;
11498;SDS011;5806;48.748;9.278;2023-03-14T02:03:52;6.27;;;1.40;;
11498;SDS011;5806;48.748;9.278;2023-03-14T02:06:24;3.97;;;1.03;;
11498;SDS011;5806;48.748;9.278;2023-03-14T02:08:54;2.50;;;0.97;;
11498;SDS011;5806;48.748;9.278;2023-03-14T02:11:23;4.57;;;0.90;;
11498;SDS011;5806;48.748;9.278;2023-03-14T02:13:53;3.60;;;0.67;;
11498;SDS011;5806;48.748;9.278;2023-03-14T02:16:21;1.93;;;0.87;;
11498;SDS011;5806;48.748;9.278;2023-03-14T02:18:48;3.57;;;1.00;;
11498;SDS011;5806;48.748;9.278;2023-03-14T02:21:18;4.50;;;0.90;;
11498;SDS011;5806;48.748;9.278;2023-03-14T02:24:00;7.00;;;1.23;;
11498;SDS011;5806;48.748;9.278;2023-03-14T02:26:40;3.53;;;0.70;;
11498;SDS011;5806;48.748;9.278;2023-03-14T02:29:02;2.60;;;1.07;;
11498;SDS011;5806;48.748;9.278;2023-03-14T02:31:29;1.67;;;0.90;;
11498;SDS011;5806;48.748;9.278;2023-03-14T02:33:57;3.13;;;0.70;;
11498;SDS011;5806;48.748;9.278;2023-03-14T02:36:26;2.33;;;0.60;;
11498;SDS011;5806;48.748;9.278;2023-03-14T02:41:40;3.60;;;0.73;;
11498;SDS011;5806;48.748;9.278;2023-03-14T02:44:09;3.23;;;0.70;;
11498;SDS011;5806;48.748;9.278;2023-03-14T02:46:36;3.77;;;0.80;;
11498;SDS011;5806;48.748;9.278;2023-03-14T02:49:05;2.63;;;0.73;;
11498;SDS011;5806;48.748;9.278;2023-03-14T02:51:34;3.33;;;0.70;;
11498;SDS011;5806;48.748;9.278;2023-03-14T02:54:03;3.10;;;0.97;;
11498;SDS011;5806;48.748;9.278;2023-03-14T02:56:30;2.27;;;0.90;;
11498;SDS011;5806;48.748;9.278;2023-03-14T02:58:58;4.90;;;0.80;;
11498;SDS011;5806;48.748;9.278;2023-03-14T03:01:27;4.80;;;0.60;;
11498;SDS011;5806;48.748;9.278;2023-03-14T03:03:54;2.63;;;0.63;;
11498;SDS011;5806;48.748;9.278;2023-03-14T03:06:22;3.43;;;0.70;;
11498;SDS011;5806;48.748;9.278;2023-03-14T03:08:49;2.03;;;0.60;;
11498;SDS011;5806;48.748;9.278;2023-03-14T03:11:17;2.77;;;0.70;;
11498;SDS011;5806;48.748;9.278;2023-03-14T03:13:44;3.10;;;0.90;;
11498;SDS011;5806;48.748;9.278;2023-03-14T03:16:12;4.30;;;0.77;;
11498;SDS011;5806;48.748;9.278;2023-03-14T03:18:40;2.60;;;0.70;;
11498;SDS011;5806;48.748;9.278;2023-03-14T03:21:08;5.70;;;0.90;;
11498;SDS011;5806;48.748;9.278;2023-03-14T03:23:35;5.53;;;0.90;;
11498;SDS011;5806;48.748;9.278;2023-03-14T03:26:03;3.07;;;1.00;;
11498;SDS011;5806;48.748;9.278;2023-03-14T03:28:30;2.77;;;0.90;;
11498;SDS011;5806;48.748;9.278;2023-03-14T03:30:58;5.83;;;1.27;;
11498;SDS011;5806;48.748;9.278;2023-03-14T03:33:25;3.80;;;0.93;;
11498;SDS011;5806;48.748;9.278;2023-03-14T03:35:53;4.90;;;1.10;;
11498;SDS011;5806;48.748;9.278;2023-03-14T03:38:20;3.70;;;1.00;;
11498;SDS011;5806;48.748;9.278;2023-03-14T03:40:48;4.83;;;1.20;;
11498;SDS011;5806;48.748;9.278;2023-03-14T03:43:15;6.77;;;1.37;;
11498;SDS011;5806;48.748;9.278;2023-03-14T03:45:43;3.47;;;1.13;;
11498;SDS011;5806;48.748;9.278;2023-03-14T03:48:11;6.87;;;1.50;;
11498;SDS011;5806;48.748;9.278;2023-03-14T03:50:43;6.07;;;1.23;;
11498;SDS011;5806;48.748;9.278;2023-03-14T03:53:11;6.37;;;1.50;;
11498;SDS011;5806;48.748;9.278;2023-03-14T03:55:43;6.47;;;1.27;;
11498;SDS011;5806;48.748;9.278;2023-03-14T03:58:08;4.87;;;1.20;;
11498;SDS011;5806;48.748;9.278;2023-03-14T04:00:35;4.17;;;1.57;;
11498;SDS011;5806;48.748;9.278;2023-03-14T04:03:04;4.50;;;1.20;;
11498;SDS011;5806;48.748;9.278;2023-03-14T04:05:32;5.60;;;1.30;;
11498;SDS011;5806;48.748;9.278;2023-03-14T04:08:00;3.83;;;1.53;;
11498;SDS011;5806;48.748;9.278;2023-03-14T04:10:28;7.87;;;1.87;;
11498;SDS011;5806;48.748;9.278;2023-03-14T04:12:56;7.97;;;1.63;;
11498;SDS011;5806;48.748;9.278;2023-03-14T04:15:23;7.67;;;1.50;;
11498;SDS011;5806;48.748;9.278;2023-03-14T04:17:51;9.47;;;1.57;;
11498;SDS011;5806;48.748;9.278;2023-03-14T04:20:20;5.93;;;1.40;;
11498;SDS011;5806;48.748;9.278;2023-03-14T04:22:47;7.27;;;1.50;;
11498;SDS011;5806;48.748;9.278;2023-03-14T04:25:15;7.33;;;1.57;;
11498;SDS011;5806;48.748;9.278;2023-03-14T04:27:44;5.40;;;1.43;;
11498;SDS011;5806;48.748;9.278;2023-03-14T04:30:11;11.47;;;1.90;;
11498;SDS011;5806;48.748;9.278;2023-03-14T04:32:39;5.73;;;1.43;;
11498;SDS011;5806;48.748;9.278;2023-03-14T04:35:06;7.37;;;1.43;;
11498;SDS011;5806;48.748;9.278;2023-03-14T04:37:34;4.17;;;1.43;;
11498;SDS011;5806;48.748;9.278;2023-03-14T04:40:02;6.13;;;1.70;;
11498;SDS011;5806;48.748;9.278;2023-03-14T04:42:32;6.07;;;1.57;;
11498;SDS011;5806;48.748;9.278;2023-03-14T04:44:59;4.27;;;1.43;;
11498;SDS011;5806;48.748;9.278;2023-03-14T04:47:27;6.67;;;1.87;;
11498;SDS011;5806;48.748;9.278;2023-03-14T04:49:55;5.20;;;1.63;;
11498;SDS011;5806;48.748;9.278;2023-03-14T04:52:22;5.00;;;1.20;;
11498;SDS011;5806;48.748;9.278;2023-03-14T04:54:50;5.23;;;1.27;;
11498;SDS011;5806;48.748;9.278;2023-03-14T04:57:17;5.13;;;1.50;;
11498;SDS011;5806;48.748;9.278;2023-03-14T04:59:45;4.50;;;1.20;;
11498;SDS011;5806;48.748;9.278;2023-03-14T05:02:12;8.13;;;1.87;;
11498;SDS011;5806;48.748;9.278;2023-03-14T05:04:40;5.37;;;1.30;;
11498;SDS011;5806;48.748;9.278;2023-03-14T05:07:07;5.20;;;1.43;;
11498;SDS011;5806;48.748;9.278;2023-03-14T05:09:35;4.07;;;1.37;;
11498;SDS011;5806;48.748;9.278;2023-03-14T05:12:02;4.03;;;1.20;;
11498;SDS011;5806;48.748;9.278;2023-03-14T05:14:30;3.37;;;1.40;;
11498;SDS011;5806;48.748;9.278;2023-03-14T05:16:58;3.23;;;1.10;;
11498;SDS011;5806;48.748;9.278;2023-03-14T05:19:25;2.80;;;1.17;;
11498;SDS011;5806;48.748;9.278;2023-03-14T05:21:53;4.43;;;1.50;;
11498;SDS011;5806;48.748;9.278;2023-03-14T05:24:20;4.20;;;1.23;;
11498;SDS011;5806;48.748;9.278;2023-03-14T05:26:47;4.93;;;1.07;;
11498;SDS011;5806;48.748;9.278;2023-03-14T05:29:15;4.60;;;1.10;;
11498;SDS011;5806;48.748;9.278;2023-03-14T05:31:43;1.67;;;0.70;;
11498;SDS011;5806;48.748;9.278;2023-03-14T05:34:10;3.60;;;1.20;;
11498;SDS011;5806;48.748;9.278;2023-03-14T05:36:38;4.03;;;1.00;;
11498;SDS011;5806;48.748;9.278;2023-03-14T05:39:05;5.80;;;0.80;;
11498;SDS011;5806;48.748;9.278;2023-03-14T05:41:32;3.60;;;0.73;;
11498;SDS011;5806;48.748;9.278;2023-03-14T05:44:01;1.93;;;0.50;;
11498;SDS011;5806;48.748;9.278;2023-03-14T05:46:28;2.63;;;0.70;;
11498;SDS011;5806;48.748;9.278;2023-03-14T05:48:59;0.93;;;0.50;;
11498;SDS011;5806;48.748;9.278;2023-03-14T05:51:27;2.63;;;0.50;;
11498;SDS011;5806;48.748;9.278;2023-03-14T05:53:54;2.67;;;0.70;;
11498;SDS011;5806;48.748;9.278;2023-03-14T05:56:22;1.03;;;0.60;;
11498;SDS011;5806;48.748;9.278;2023-03-14T05:58:49;1.80;;;0.47;;
11498;SDS011;5806;48.748;9.278;2023-03-14T06:01:17;1.37;;;0.50;;
11498;SDS011;5806;48.748;9.278;2023-03-14T06:03:44;0.40;;;0.20;;
11498;SDS011;5806;48.748;9.278;2023-03-14T06:06:12;0.77;;;0.30;;
11498;SDS011;5806;48.748;9.278;2023-03-14T06:08:39;0.67;;;0.30;;
11498;SDS011;5806;48.748;9.278;2023-03-14T06:11:07;0.93;;;0.40;;
11498;SDS011;5806;48.748;9.278;2023-03-14T06:13:35;0.50;;;0.30;;
11498;SDS011;5806;48.748;9.278;2023-03-14T06:16:02;0.50;;;0.20;;
11498;SDS011;5806;48.748;9.278;2023-03-14T06:18:30;0.30;;;0.20;;
11498;SDS011;5806;48.748;9.278;2023-03-14T06:20:58;0.57;;;0.13;;
11498;SDS011;5806;48.748;9.278;2023-03-14T06:23:25;1.20;;;0.30;;
11498;SDS011;5806;48.748;9.278;2023-03-14T06:25:55;1.37;;;0.30;;
11498;SDS011;5806;48.748;9.278;2023-03-14T06:28:22;0.83;;;0.20;;
11498;SDS011;5806;48.748;9.278;2023-03-14T06:30:50;0.67;;;0.27;;
11498;SDS011;5806;48.748;9.278;2023-03-14T06:33:17;0.20;;;0.10;;
11498;SDS011;5806;48.748;9.278;2023-03-14T06:35:45;1.37;;;0.20;;
11498;SDS011;5806;48.748;9.278;2023-03-14T06:38:12;0.40;;;0.20;;
11498;SDS011;5806;48.748;9.278;2023-03-14T06:40:40;0.20;;;0.17;;
11498;SDS011;5806;48.748;9.278;2023-03-14T06:43:07;2.07;;;0.30;;
11498;SDS011;5806;48.748;9.278;2023-03-14T06:45:34;1.00;;;0.10;;
11498;SDS011;5806;48.748;9.278;2023-03-14T06:48:02;0.93;;;0.30;;
11498;SDS011;5806;48.748;9.278;2023-03-14T06:50:30;1.10;;;0.20;;
11498;SDS011;5806;48.748;9.278;2023-03-14T06:52:57;0.50;;;0.20;;
11498;SDS011;5806;48.748;9.278;2023-03-14T06:55:24;0.53;;;0.30;;
11498;SDS011;5806;48.748;9.278;2023-03-14T06:57:52;0.83;;;0.20;;
11498;SDS011;5806;48.748;9.278;2023-03-14T07:00:19;1.50;;;0.20;;
11498;SDS011;5806;48.748;9.278;2023-03-14T07:02:47;0.93;;;0.50;;
11498;SDS011;5806;48.748;9.278;2023-03-14T07:05:14;0.40;;;0.20;;
11498;SDS011;5806;48.748;9.278;2023-03-14T07:07:42;1.33;;;0.37;;
11498;SDS011;5806;48.748;9.278;2023-03-14T07:10:10;0.37;;;0.30;;
11498;SDS011;5806;48.748;9.278;2023-03-14T07:12:37;1.90;;;0.37;;
11498;SDS011;5806;48.748;9.278;2023-03-14T07:15:05;1.23;;;0.40;;
11498;SDS011;5806;48.748;9.278;2023-03-14T07:17:33;0.90;;;0.30;;
11498;SDS011;5806;48.748;9.278;2023-03-14T07:20:00;0.47;;;0.30;;
11498;SDS011;5806;48.748;9.278;2023-03-14T07:22:30;0.57;;;0.20;;
11498;SDS011;5806;48.748;9.278;2023-03-14T07:24:57;1.50;;;0.30;;
11498;SDS011;5806;48.748;9.278;2023-03-14T07:27:25;1.47;;;0.37;;
11498;SDS011;5806;48.748;9.278;2023-03-14T07:29:52;0.47;;;0.10;;
11498;SDS011;5806;48.748;9.278;2023-03-14T07:32:20;0.83;;;0.30;;
11498;SDS011;5806;48.748;9.278;2023-03-14T07:34:47;0.87;;;0.10;;
11498;SDS011;5806;48.748;9.278;2023-03-14T07:37:15;0.10;;;0.10;;
11498;SDS011;5806;48.748;9.278;2023-03-14T07:39:42;0.50;;;0.10;;
11498;SDS011;5806;48.748;9.278;2023-03-14T07:42:09;0.20;;;0.10;;
11498;SDS011;5806;48.748;9.278;2023-03-14T07:44:37;0.50;;;0.10;;
11498;SDS011;5806;48.748;9.278;2023-03-14T07:47:04;0.20;;;0.10;;
11498;SDS011;5806;48.748;9.278;2023-03-14T07:49:32;0.40;;;0.20;;
11498;SDS011;5806;48.748;9.278;2023-03-14T07:51:59;0.73;;;0.20;;
11498;SDS011;5806;48.748;9.278;2023-03-14T07:54:27;0.40;;;0.20;;
11498;SDS011;5806;48.748;9.278;2023-03-14T07:56:54;0.30;;;0.20;;
11498;SDS011;5806;48.748;9.278;2023-03-14T07:59:23;0.63;;;0.17;;
11498;SDS011;5806;48.748;9.278;2023-03-14T08:01:50;0.27;;;0.20;;
11498;SDS011;5806;48.748;9.278;2023-03-14T08:04:18;0.93;;;0.10;;
11498;SDS011;5806;48.748;9.278;2023-03-14T08:06:45;0.37;;;0.20;;
11498;SDS011;5806;48.748;9.278;2023-03-14T08:09:13;0.27;;;0.20;;
11498;SDS011;5806;48.748;9.278;2023-03-14T08:11:41;1.33;;;0.20;;
11498;SDS011;5806;48.748;9.278;2023-03-14T08:14:08;1.60;;;0.17;;
11498;SDS011;5806;48.748;9.278;2023-03-14T08:16:36;0.30;;;0.20;;
11498;SDS011;5806;48.748;9.278;2023-03-14T08:19:04;0.10;;;0.10;;
11498;SDS011;5806;48.748;9.278;2023-03-14T08:21:31;0.83;;;0.20;;
11498;SDS011;5806;48.748;9.278;2023-03-14T08:23:59;0.20;;;0.20;;
11498;SDS011;5806;48.748;9.278;2023-03-14T08:26:26;0.10;;;0.10;;
11498;SDS011;5806;48.748;9.278;2023-03-14T08:28:53;6.33;;;0.80;;
11498;SDS011;5806;48.748;9.278;2023-03-14T08:31:21;0.80;;;0.20;;
11498;SDS011;5806;48.748;9.278;2023-03-14T08:33:48;5.00;;;0.23;;
11498;SDS011;5806;48.748;9.278;2023-03-14T08:36:17;0.63;;;0.10;;
11498;SDS011;5806;48.748;9.278;2023-03-14T08:38:45;0.20;;;0.10;;
11498;SDS011;5806;48.748;9.278;2023-03-14T08:41:13;0.73;;;0.30;;
11498;SDS011;5806;48.748;9.278;2023-03-14T08:43:40;0.27;;;0.20;;
11498;SDS011;5806;48.748;9.278;2023-03-14T08:46:07;0.23;;;0.13;;
11498;SDS011;5806;48.748;9.278;2023-03-14T08:48:35;0.17;;;0.17;;
11498;SDS011;5806;48.748;9.278;2023-03-14T08:51:06;0.60;;;0.40;;
11498;SDS011;5806;48.748;9.278;2023-03-14T08:53:36;0.67;;;0.27;;
11498;SDS011;5806;48.748;9.278;2023-03-14T08:56:04;0.97;;;0.33;;
11498;SDS011;5806;48.748;9.278;2023-03-14T08:58:34;0.43;;;0.30;;
11498;SDS011;5806;48.748;9.278;2023-03-14T09:01:09;0.37;;;0.30;;
11498;SDS011;5806;48.748;9.278;2023-03-14T09:03:32;0.63;;;0.30;;
11498;SDS011;5806;48.748;9.278;2023-03-14T09:06:03;1.07;;;0.30;;
11498;SDS011;5806;48.748;9.278;2023-03-14T09:08:31;2.13;;;0.40;;
11498;SDS011;5806;48.748;9.278;2023-03-14T09:10:59;0.57;;;0.20;;
11498;SDS011;5806;48.748;9.278;2023-03-14T09:13:28;1.67;;;0.23;;
11498;SDS011;5806;48.748;9.278;2023-03-14T09:15:57;0.40;;;0.20;;
11498;SDS011;5806;48.748;9.278;2023-03-14T09:18:24;1.73;;;0.50;;
11498;SDS011;5806;48.748;9.278;2023-03-14T09:20:52;1.13;;;0.50;;
11498;SDS011;5806;48.748;9.278;2023-03-14T09:23:19;0.80;;;0.30;;
11498;SDS011;5806;48.748;9.278;2023-03-14T09:25:47;0.57;;;0.30;;
11498;SDS011;5806;48.748;9.278;2023-03-14T09:28:14;0.37;;;0.30;;
11498;SDS011;5806;48.748;9.278;2023-03-14T09:30:41;0.30;;;0.30;;
11498;SDS011;5806;48.748;9.278;2023-03-14T09:33:09;1.90;;;0.50;;
11498;SDS011;5806;48.748;9.278;2023-03-14T09:35:36;2.63;;;0.40;;
11498;SDS011;5806;48.748;9.278;2023-03-14T09:38:04;0.70;;;0.33;;
11498;SDS011;5806;48.748;9.278;2023-03-14T09:40:32;1.53;;;0.40;;
11498;SDS011;5806;48.748;9.278;2023-03-14T09:43:02;0.70;;;0.43;;
11498;SDS011;5806;48.748;9.278;2023-03-14T09:45:36;2.63;;;0.63;;
11498;SDS011;5806;48.748;9.278;2023-03-14T09:48:08;1.60;;;0.77;;
11498;SDS011;5806;48.748;9.278;2023-03-14T09:50:41;0.57;;;0.43;;
11498;SDS011;5806;48.748;9.278;2023-03-14T09:53:14;1.73;;;0.67;;
11498;SDS011;5806;48.748;9.278;2023-03-14T09:55:45;1.20;;;0.90;;
11498;SDS011;5806;48.748;9.278;2023-03-14T09:58:18;2.73;;;0.90;;
11498;SDS011;5806;48.748;9.278;2023-03-14T10:00:48;2.97;;;1.00;;
11498;SDS011;5806;48.748;9.278;2023-03-14T10:03:31;0.90;;;0.90;;
11498;SDS011;5806;48.748;9.278;2023-03-14T10:05:59;1.53;;;1.00;;
11498;SDS011;5806;48.748;9.278;2023-03-14T10:08:28;1.63;;;1.17;;
11498;SDS011;5806;48.748;9.278;2023-03-14T10:10:55;2.93;;;1.40;;
11498;SDS011;5806;48.748;9.278;2023-03-14T10:13:25;2.87;;;1.10;;
11498;SDS011;5806;48.748;9.278;2023-03-14T10:15:55;1.57;;;1.10;;
11498;SDS011;5806;48.748;9.278;2023-03-14T10:18:31;3.67;;;1.93;;
11498;SDS011;5806;48.748;9.278;2023-03-14T10:21:06;1.87;;;1.20;;
11498;SDS011;5806;48.748;9.278;2023-03-14T10:23:32;2.17;;;1.10;;
11498;SDS011;5806;48.748;9.278;2023-03-14T10:28:51;2.23;;;1.20;;
11498;SDS011;5806;48.748;9.278;2023-03-14T10:31:45;2.93;;;1.60;;
11498;SDS011;5806;48.748;9.278;2023-03-14T10:34:02;2.27;;;1.20;;
11498;SDS011;5806;48.748;9.278;2023-03-14T10:36:32;2.53;;;1.30;;
11498;SDS011;5806;48.748;9.278;2023-03-14T10:41:53;3.40;;;1.63;;
11498;SDS011;5806;48.748;9.278;2023-03-14T10:44:31;4.37;;;1.90;;
11498;SDS011;5806;48.748;9.278;2023-03-14T10:47:01;3.37;;;1.90;;
11498;SDS011;5806;48.748;9.278;2023-03-14T10:49:35;2.87;;;2.00;;
11498;SDS011;5806;48.748;9.278;2023-03-14T10:54:59;2.30;;;2.07;;
11498;SDS011;5806;48.748;9.278;2023-03-14T10:57:21;5.03;;;1.50;;
11498;SDS011;5806;48.748;9.278;2023-03-14T10:59:49;1.70;;;1.60;;
11498;SDS011;5806;48.748;9.278;2023-03-14T11:05:10;2.70;;;2.00;;
11498;SDS011;5806;48.748;9.278;2023-03-14T11:07:55;3.57;;;2.77;;
11498;SDS011;5806;48.748;9.278;2023-03-14T11:10:26;2.10;;;1.90;;
11498;SDS011;5806;48.748;9.278;2023-03-14T11:13:14;3.37;;;1.93;;
11498;SDS011;5806;48.748;9.278;2023-03-14T11:24:02;1.67;;;1.27;;
11498;SDS011;5806;48.748;9.278;2023-03-14T11:29:20;1.97;;;1.37;;
11498;SDS011;5806;48.748;9.278;2023-03-14T11:32:12;2.67;;;1.80;;
11498;SDS011;5806;48.748;9.278;2023-03-14T11:34:51;2.90;;;1.73;;
11498;SDS011;5806;48.748;9.278;2023-03-14T11:37:25;1.77;;;1.37;;
11498;SDS011;5806;48.748;9.278;2023-03-14T11:40:10;2.47;;;1.30;;
11498;SDS011;5806;48.748;9.278;2023-03-14T11:42:36;2.73;;;1.50;;
11498;SDS011;5806;48.748;9.278;2023-03-14T11:45:10;3.07;;;1.50;;
11498;SDS011;5806;48.748;9.278;2023-03-14T11:47:37;1.13;;;0.70;;
11498;SDS011;5806;48.748;9.278;2023-03-14T11:50:14;1.97;;;0.70;;
11498;SDS011;5806;48.748;9.278;2023-03-14T11:55:19;1.37;;;0.77;;
11498;SDS011;5806;48.748;9.278;2023-03-14T12:00:49;1.57;;;0.90;;
11498;SDS011;5806;48.748;9.278;2023-03-14T12:06:13;1.30;;;1.20;;
11498;SDS011;5806;48.748;9.278;2023-03-14T12:08:43;2.47;;;1.70;;
11498;SDS011;5806;48.748;9.278;2023-03-14T12:11:31;2.47;;;1.47;;
11498;SDS011;5806;48.748;9.278;2023-03-14T12:14:01;2.77;;;1.73;;
11498;SDS011;5806;48.748;9.278;2023-03-14T12:16:31;3.13;;;2.00;;
11498;SDS011;5806;48.748;9.278;2023-03-14T12:19:24;2.50;;;2.00;;
11498;SDS011;5806;48.748;9.278;2023-03-14T12:21:53;5.47;;;1.90;;
11498;SDS011;5806;48.748;9.278;2023-03-14T12:24:26;3.67;;;2.23;;
11498;SDS011;5806;48.748;9.278;2023-03-14T12:26:59;3.80;;;2.37;;
11498;SDS011;5806;48.748;9.278;2023-03-14T12:29:28;3.90;;;2.90;;
11498;SDS011;5806;48.748;9.278;2023-03-14T12:34:51;2.93;;;2.63;;
11498;SDS011;5806;48.748;9.278;2023-03-14T12:37:22;5.20;;;3.00;;
11498;SDS011;5806;48.748;9.278;2023-03-14T12:42:38;4.33;;;3.20;;
11498;SDS011;5806;48.748;9.278;2023-03-14T12:45:24;4.67;;;3.30;;
11498;SDS011;5806;48.748;9.278;2023-03-14T12:48:09;5.83;;;4.00;;
11498;SDS011;5806;48.748;9.278;2023-03-14T12:50:56;5.13;;;4.63;;
11498;SDS011;5806;48.748;9.278;2023-03-14T12:58:29;4.80;;;4.27;;
11498;SDS011;5806;48.748;9.278;2023-03-14T13:00:59;5.03;;;4.23;;
11498;SDS011;5806;48.748;9.278;2023-03-14T13:03:36;5.23;;;4.00;;
11498;SDS011;5806;48.748;9.278;2023-03-14T13:06:23;4.83;;;3.37;;
11498;SDS011;5806;48.748;9.278;2023-03-14T13:09:25;4.20;;;3.40;;
11498;SDS011;5806;48.748;9.278;2023-03-14T13:11:39;4.73;;;3.17;;
11498;SDS011;5806;48.748;9.278;2023-03-14T13:14:08;3.83;;;2.90;;
11498;SDS011;5806;48.748;9.278;2023-03-14T13:16:36;4.67;;;2.90;;
11498;SDS011;5806;48.748;9.278;2023-03-14T13:19:11;8.50;;;2.70;;
11498;SDS011;5806;48.748;9.278;2023-03-14T13:21:35;4.93;;;2.60;;
11498;SDS011;5806;48.748;9.278;2023-03-14T13:24:05;3.80;;;2.90;;
11498;SDS011;5806;48.748;9.278;2023-03-14T13:26:42;4.60;;;2.67;;
11498;SDS011;5806;48.748;9.278;2023-03-14T13:29:14;5.13;;;2.57;;
11498;SDS011;5806;48.748;9.278;2023-03-14T13:31:43;4.50;;;2.83;;
11498;SDS011;5806;48.748;9.278;2023-03-14T13:34:12;4.70;;;2.93;;
11498;SDS011;5806;48.748;9.278;2023-03-14T13:36:40;4.70;;;2.70;;
11498;SDS011;5806;48.748;9.278;2023-03-14T13:39:13;5.60;;;3.00;;
11498;SDS011;5806;48.748;9.278;2023-03-14T13:41:41;6.80;;;2.83;;
11498;SDS011;5806;48.748;9.278;2023-03-14T13:44:31;6.23;;;2.70;;
11498;SDS011;5806;48.748;9.278;2023-03-14T13:46:45;6.57;;;2.50;;
11498;SDS011;5806;48.748;9.278;2023-03-14T13:49:16;6.73;;;2.73;;
11498;SDS011;5806;48.748;9.278;2023-03-14T13:51:43;7.03;;;2.47;;
11498;SDS011;5806;48.748;9.278;2023-03-14T13:54:14;4.97;;;1.97;;
11498;SDS011;5806;48.748;9.278;2023-03-14T13:56:44;2.20;;;1.30;;
11498;SDS011;5806;48.748;9.278;2023-03-14T13:59:30;2.07;;;1.27;;
11498;SDS011;5806;48.748;9.278;2023-03-14T14:01:55;4.13;;;1.50;;
11498;SDS011;5806;48.748;9.278;2023-03-14T14:04:25;5.93;;;1.80;;
11498;SDS011;5806;48.748;9.278;2023-03-14T14:06:55;6.37;;;2.27;;
11498;SDS011;5806;48.748;9.278;2023-03-14T14:09:35;6.87;;;2.50;;
11498;SDS011;5806;48.748;9.278;2023-03-14T14:14:39;8.77;;;2.77;;
11498;SDS011;5806;48.748;9.278;2023-03-14T14:17:21;7.23;;;2.60;;
11498;SDS011;5806;48.748;9.278;2023-03-14T14:19:50;7.57;;;2.67;;
11498;SDS011;5806;48.748;9.278;2023-03-14T14:22:19;10.47;;;2.87;;
11498;SDS011;5806;48.748;9.278;2023-03-14T14:24:47;5.80;;;2.60;;
11498;SDS011;5806;48.748;9.278;2023-03-14T14:27:32;14.03;;;3.13;;
11498;SDS011;5806;48.748;9.278;2023-03-14T14:30:06;6.93;;;2.87;;
11498;SDS011;5806;48.748;9.278;2023-03-14T14:32:39;6.03;;;2.77;;
11498;SDS011;5806;48.748;9.278;2023-03-14T14:35:07;7.43;;;2.33;;
11498;SDS011;5806;48.748;9.278;2023-03-14T14:37:41;9.40;;;2.40;;
11498;SDS011;5806;48.748;9.278;2023-03-14T14:40:22;7.60;;;1.67;;
11498;SDS011;5806;48.748;9.278;2023-03-14T14:42:42;5.83;;;2.00;;
11498;SDS011;5806;48.748;9.278;2023-03-14T14:45:13;8.87;;;1.73;;
11498;SDS011;5806;48.748;9.278;2023-03-14T14:47:53;5.40;;;1.77;;
11498;SDS011;5806;48.748;9.278;2023-03-14T14:50:32;11.67;;;2.67;;
11498;SDS011;5806;48.748;9.278;2023-03-14T14:53:02;11.13;;;2.03;;
11498;SDS011;5806;48.748;9.278;2023-03-14T14:55:33;12.70;;;2.57;;
11498;SDS011;5806;48.748;9.278;2023-03-14T15:01:10;13.40;;;2.20;;
11498;SDS011;5806;48.748;9.278;2023-03-14T15:03:31;10.00;;;2.33;;
11498;SDS011;5806;48.748;9.278;2023-03-14T15:06:02;13.77;;;2.77;;
11498;SDS011;5806;48.748;9.278;2023-03-14T15:08:30;12.63;;;2.67;;
11498;SDS011;5806;48.748;9.278;2023-03-14T15:10:57;9.23;;;2.67;;
11498;SDS011;5806;48.748;9.278;2023-03-14T15:13:25;10.53;;;3.57;;
11498;SDS011;5806;48.748;9.278;2023-03-14T15:15:53;12.93;;;4.30;;
11498;SDS011;5806;48.748;9.278;2023-03-14T15:18:24;15.23;;;5.17;;
11498;SDS011;5806;48.748;9.278;2023-03-14T15:20:53;14.57;;;4.47;;
11498;SDS011;5806;48.748;9.278;2023-03-14T15:23:21;10.67;;;3.10;;
11498;SDS011;5806;48.748;9.278;2023-03-14T15:25:49;13.50;;;2.97;;
11498;SDS011;5806;48.748;9.278;2023-03-14T15:28:17;10.10;;;3.87;;
11498;SDS011;5806;48.748;9.278;2023-03-14T15:30:47;16.97;;;3.87;;
11498;SDS011;5806;48.748;9.278;2023-03-14T15:33:17;16.43;;;3.10;;
11498;SDS011;5806;48.748;9.278;2023-03-14T15:35:45;14.03;;;3.87;;
11498;SDS011;5806;48.748;9.278;2023-03-14T15:38:13;14.63;;;3.70;;
11498;SDS011;5806;48.748;9.278;2023-03-14T15:40:44;12.90;;;3.87;;
11498;SDS011;5806;48.748;9.278;2023-03-14T15:43:12;11.87;;;3.03;;
11498;SDS011;5806;48.748;9.278;2023-03-14T15:45:39;18.67;;;3.07;;
11498;SDS011;5806;48.748;9.278;2023-03-14T15:48:17;11.83;;;2.97;;
11498;SDS011;5806;48.748;9.278;2023-03-14T15:50:40;15.47;;;4.10;;
11498;SDS011;5806;48.748;9.278;2023-03-14T15:53:08;13.67;;;3.27;;
11498;SDS011;5806;48.748;9.278;2023-03-14T15:55:36;11.73;;;3.20;;
11498;SDS011;5806;48.748;9.278;2023-03-14T15:58:04;15.53;;;3.40;;
11498;SDS011;5806;48.748;9.278;2023-03-14T16:00:31;11.03;;;3.00;;
11498;SDS011;5806;48.748;9.278;2023-03-14T16:03:00;9.07;;;2.80;;
11498;SDS011;5806;48.748;9.278;2023-03-14T16:05:27;12.53;;;2.70;;
11498;SDS011;5806;48.748;9.278;2023-03-14T16:07:55;12.37;;;2.80;;